Time;durP1;ratioP1;P1;durP2;ratioP2;P2;SDS_P1;SDS_P2;PMS_P1;PMS_P2;Temp;Humidity;BMP_temperature;BMP_pressure;BME280_temperature;BME280_humidity;BME280_pressure;Samples;Min_cycle;Max_cycle;Signal;HPM_P1;HPM_P2
2023/06/01 00:01:57;;;;;;;9.80;5.20;;;12.70;92.30;;;;;;5094618;28;20137;-70
2023/06/01 00:04:23;;;;;;;9.23;5.07;;;12.70;91.40;;;;;;5087295;28;20020;-70
2023/06/01 00:06:49;;;;;;;10.57;5.50;;;12.80;91.30;;;;;;5089942;28;20036;-69
2023/06/01 00:09:17;;;;;;;10.52;5.53;;;12.90;91.00;;;;;;5087231;28;20031;-69
2023/06/01 00:11:43;;;;;;;10.02;5.22;;;13.00;90.10;;;;;;5079971;28;20024;-71
2023/06/01 00:14:09;;;;;;;11.65;5.55;;;13.00;89.20;;;;;;5071676;28;20028;-71
2023/06/01 00:16:36;;;;;;;11.10;4.55;;;13.00;89.10;;;;;;5081451;28;20054;-71
2023/06/01 00:19:03;;;;;;;9.73;5.03;;;13.10;88.70;;;;;;5086806;28;20036;-70
2023/06/01 00:21:31;;;;;;;9.65;5.13;;;13.20;88.00;;;;;;5080538;28;20036;-71
2023/06/01 00:23:57;;;;;;;9.88;5.45;;;13.20;88.00;;;;;;5077297;28;20020;-71
2023/06/01 00:26:26;;;;;;;9.35;4.95;;;13.30;87.50;;;;;;5089914;28;20016;-71
2023/06/01 00:28:51;;;;;;;11.25;5.22;;;13.30;87.30;;;;;;5089683;28;20299;-71
2023/06/01 00:31:17;;;;;;;13.43;4.97;;;13.30;86.90;;;;;;5096080;28;20027;-70
2023/06/01 00:33:42;;;;;;;11.10;5.20;;;13.30;86.70;;;;;;5097186;28;20099;-70
2023/06/01 00:36:08;;;;;;;10.02;5.13;;;13.40;86.80;;;;;;5092244;28;20044;-70
2023/06/01 00:38:34;;;;;;;11.98;5.40;;;13.50;86.40;;;;;;5094110;28;20024;-70
2023/06/01 00:40:59;;;;;;;9.63;4.85;;;13.50;86.20;;;;;;5092502;28;20056;-70
2023/06/01 00:43:25;;;;;;;11.75;5.25;;;13.50;86.00;;;;;;5092139;28;20024;-69
2023/06/01 00:45:50;;;;;;;10.70;5.03;;;13.50;86.00;;;;;;5086538;28;20455;-71
2023/06/01 00:48:17;;;;;;;10.43;5.03;;;13.60;85.40;;;;;;5088008;28;20163;-70
2023/06/01 00:50:43;;;;;;;9.68;5.00;;;13.60;85.30;;;;;;5085737;28;20029;-70
2023/06/01 00:53:20;;;;;;;9.85;4.72;;;13.60;85.20;;;;;;5078536;28;20418;-70
2023/06/01 00:55:46;;;;;;;11.48;5.45;;;13.50;85.70;;;;;;5079157;28;20021;-71
2023/06/01 00:58:12;;;;;;;12.30;5.20;;;13.40;87.30;;;;;;5078736;28;20039;-70
2023/06/01 01:00:38;;;;;;;11.07;5.90;;;13.20;87.40;;;;;;5099482;28;20417;-71
2023/06/01 01:03:08;;;;;;;11.95;5.88;;;13.10;87.70;;;;;;5099237;28;20084;-70
2023/06/01 01:05:35;;;;;;;10.73;5.18;;;13.00;89.30;;;;;;5097016;28;20111;-71
2023/06/01 01:08:17;;;;;;;13.77;5.30;;;12.80;89.90;;;;;;5078826;28;20028;-70
2023/06/01 01:11:07;;;;;;;10.13;5.57;;;12.70;90.50;;;;;;5078884;28;20078;-70
2023/06/01 01:13:43;;;;;;;9.55;5.22;;;12.50;91.40;;;;;;5087769;28;20024;-70
2023/06/01 01:16:27;;;;;;;9.02;5.18;;;12.40;92.40;;;;;;5087441;28;20017;-70
2023/06/01 01:19:00;;;;;;;11.18;5.05;;;12.20;92.70;;;;;;5099189;28;20024;-70
2023/06/01 01:21:31;;;;;;;8.98;5.32;;;12.00;93.40;;;;;;5078693;28;20035;-70
2023/06/01 01:24:34;;;;;;;10.10;5.60;;;11.80;94.30;;;;;;5076121;28;20116;-70
2023/06/01 01:27:03;;;;;;;9.25;5.30;;;11.70;94.70;;;;;;5082170;28;20091;-69
2023/06/01 01:29:32;;;;;;;10.45;5.65;;;11.50;95.10;;;;;;5098735;28;20078;-70
2023/06/01 01:31:59;;;;;;;10.70;5.82;;;11.40;95.50;;;;;;5082042;28;20113;-70
2023/06/01 01:34:27;;;;;;;10.00;5.35;;;11.30;95.90;;;;;;5080013;28;20070;-70
2023/06/01 01:36:52;;;;;;;11.07;6.25;;;11.20;96.00;;;;;;5080279;28;20043;-70
2023/06/01 01:39:18;;;;;;;10.70;6.10;;;11.20;96.20;;;;;;5097446;28;20124;-70
2023/06/01 01:41:44;;;;;;;11.90;5.88;;;11.20;96.10;;;;;;5098726;28;20032;-70
2023/06/01 01:44:09;;;;;;;10.95;5.60;;;11.10;96.10;;;;;;5098189;28;20040;-71
2023/06/01 01:47:09;;;;;;;10.90;5.82;;;11.20;96.20;;;;;;5097623;28;20024;-70
2023/06/01 01:49:40;;;;;;;10.63;5.40;;;11.20;96.20;;;;;;5097329;28;20020;-70
2023/06/01 01:52:17;;;;;;;13.27;6.20;;;11.20;96.30;;;;;;5081696;28;20024;-70
2023/06/01 01:54:45;;;;;;;8.88;5.60;;;11.10;96.50;;;;;;5073661;28;20052;-70
2023/06/01 01:57:14;;;;;;;14.02;6.18;;;11.20;96.40;;;;;;5078108;28;20067;-70
2023/06/01 01:59:43;;;;;;;11.35;6.22;;;11.20;96.40;;;;;;5088093;28;20031;-71
2023/06/01 02:02:11;;;;;;;9.73;5.47;;;11.30;96.30;;;;;;5098201;28;20031;-70
2023/06/01 02:04:45;;;;;;;11.45;5.90;;;11.40;95.50;;;;;;5091953;28;20372;-70
2023/06/01 02:07:11;;;;;;;;;;;11.40;95.20;;;;;;5086325;28;20020;-70
2023/06/01 02:09:37;;;;;;;12.48;5.95;;;11.40;95.30;;;;;;5115885;28;20266;-71
2023/06/01 02:12:03;;;;;;;11.00;5.95;;;11.30;95.90;;;;;;5118362;28;20012;-70
2023/06/01 02:14:29;;;;;;;10.88;5.85;;;11.20;95.90;;;;;;5113691;28;20031;-71
2023/06/01 02:16:54;;;;;;;10.43;5.55;;;11.10;96.40;;;;;;5084171;28;20418;-70
2023/06/01 02:19:21;;;;;;;10.32;6.05;;;11.00;96.70;;;;;;5096971;28;20051;-69
2023/06/01 02:21:46;;;;;;;12.57;6.35;;;11.00;96.70;;;;;;5095583;28;20417;-69
2023/06/01 02:24:12;;;;;;;10.90;6.03;;;10.90;97.00;;;;;;5076992;28;20174;-69
2023/06/01 02:26:38;;;;;;;11.85;6.30;;;10.90;96.80;;;;;;5059188;28;20036;-69
2023/06/01 02:29:07;;;;;;;12.90;6.25;;;10.80;96.90;;;;;;5072516;28;20417;-71
2023/06/01 02:31:36;;;;;;;10.38;6.07;;;10.80;97.10;;;;;;5077321;28;20087;-71
2023/06/01 02:34:02;;;;;;;10.55;6.68;;;10.80;97.10;;;;;;5096720;28;20062;-71
2023/06/01 02:36:31;;;;;;;13.50;7.00;;;10.70;97.10;;;;;;5079517;28;20361;-71
2023/06/01 02:38:57;;;;;;;11.02;6.28;;;10.60;97.20;;;;;;5095137;28;20022;-70
2023/06/01 02:41:23;;;;;;;10.73;6.22;;;10.50;97.20;;;;;;5091129;28;20032;-70
2023/06/01 02:43:52;;;;;;;13.68;7.10;;;10.50;97.30;;;;;;5090913;28;20028;-69
2023/06/01 02:46:18;;;;;;;11.30;6.10;;;10.40;97.40;;;;;;5087712;28;20416;-71
2023/06/01 02:48:44;;;;;;;10.55;6.20;;;10.50;97.50;;;;;;5060527;28;20078;-70
2023/06/01 02:51:10;;;;;;;17.25;6.40;;;10.50;97.50;;;;;;5083689;28;20356;-70
2023/06/01 02:53:35;;;;;;;13.75;6.53;;;10.50;97.50;;;;;;5097410;28;20053;-70
2023/06/01 02:56:01;;;;;;;10.93;6.07;;;10.50;97.50;;;;;;5097549;28;20035;-70
2023/06/01 02:58:29;;;;;;;12.13;6.53;;;10.50;97.30;;;;;;5092397;28;20024;-70
2023/06/01 03:00:57;;;;;;;12.90;5.90;;;10.50;97.40;;;;;;5093763;28;20135;-70
2023/06/01 03:03:23;;;;;;;12.10;6.30;;;10.40;97.50;;;;;;5096962;28;20024;-70
2023/06/01 03:05:49;;;;;;;10.45;6.60;;;10.40;97.50;;;;;;5097053;28;20317;-70
2023/06/01 03:08:16;;;;;;;10.77;6.07;;;10.30;97.50;;;;;;5095278;28;20032;-70
2023/06/01 03:10:42;;;;;;;11.23;6.07;;;10.30;97.40;;;;;;5096771;28;20020;-70
2023/06/01 03:13:07;;;;;;;12.82;6.93;;;10.40;97.60;;;;;;5086389;28;20317;-70
2023/06/01 03:15:34;;;;;;;10.45;7.03;;;10.40;97.50;;;;;;5086630;28;20068;-70
2023/06/01 03:18:01;;;;;;;11.23;6.45;;;10.40;97.60;;;;;;5096107;28;20016;-70
2023/06/01 03:20:26;;;;;;;10.70;5.53;;;10.50;97.70;;;;;;5091922;28;20086;-70
2023/06/01 03:22:52;;;;;;;11.10;6.88;;;10.50;97.60;;;;;;5082908;28;20036;-70
2023/06/01 03:25:18;;;;;;;12.35;6.82;;;10.50;97.60;;;;;;5094740;28;20032;-70
2023/06/01 03:27:43;;;;;;;11.95;6.40;;;10.50;97.60;;;;;;5095692;28;20035;-72
2023/06/01 03:30:10;;;;;;;13.98;6.90;;;10.50;97.70;;;;;;5071848;28;20035;-71
2023/06/01 03:32:46;;;;;;;15.20;6.35;;;10.60;97.70;;;;;;5061877;28;20074;-70
2023/06/01 03:35:12;;;;;;;11.18;6.65;;;10.60;97.50;;;;;;5094753;28;20309;-71
2023/06/01 03:37:40;;;;;;;13.02;6.72;;;10.70;97.50;;;;;;5094035;28;20052;-71
2023/06/01 03:40:10;;;;;;;10.48;6.00;;;10.70;97.60;;;;;;5079640;28;20050;-71
2023/06/01 03:42:46;;;;;;;12.40;6.32;;;10.70;97.50;;;;;;5092882;28;20028;-71
2023/06/01 03:45:13;;;;;;;15.88;6.85;;;10.80;97.50;;;;;;5086634;28;20262;-72
2023/06/01 03:47:39;;;;;;;11.73;6.15;;;10.80;97.40;;;;;;5078569;28;20032;-70
2023/06/01 03:50:07;;;;;;;10.25;6.15;;;10.80;97.40;;;;;;5088678;28;20030;-70
2023/06/01 03:52:33;;;;;;;10.73;6.57;;;10.80;97.50;;;;;;5085500;28;20047;-72
2023/06/01 03:55:04;;;;;;;11.38;6.75;;;10.80;97.40;;;;;;5089815;28;20047;-72
2023/06/01 03:57:30;;;;;;;10.32;6.45;;;10.70;97.50;;;;;;5089544;28;20425;-72
2023/06/01 03:59:56;;;;;;;11.15;6.78;;;10.70;97.50;;;;;;5089689;28;20111;-72
2023/06/01 04:02:22;;;;;;;11.10;6.82;;;10.70;97.50;;;;;;5083180;28;20036;-72
2023/06/01 04:04:48;;;;;;;13.25;7.10;;;10.60;97.60;;;;;;5061582;28;20428;-72
2023/06/01 04:07:18;;;;;;;11.10;6.90;;;10.60;97.50;;;;;;5089599;28;20054;-72
2023/06/01 04:09:43;;;;;;;12.20;6.95;;;10.70;97.50;;;;;;5081600;28;20080;-71
2023/06/01 04:12:13;;;;;;;11.65;6.70;;;10.70;97.60;;;;;;5090889;28;20028;-71
2023/06/01 04:14:38;;;;;;;12.25;7.45;;;10.80;97.60;;;;;;5089698;28;20313;-72
2023/06/01 04:17:04;;;;;;;12.10;7.13;;;10.90;97.60;;;;;;5092224;28;20020;-72
2023/06/01 04:19:30;;;;;;;12.85;7.15;;;10.90;97.50;;;;;;5084317;28;20309;-72
2023/06/01 04:21:56;;;;;;;12.25;7.07;;;11.00;97.60;;;;;;5095990;28;20028;-72
2023/06/01 04:24:22;;;;;;;13.23;7.38;;;11.10;97.60;;;;;;5086792;28;20028;-72
2023/06/01 04:26:49;;;;;;;11.73;6.55;;;11.10;97.60;;;;;;5094976;28;20036;-72
2023/06/01 04:29:15;;;;;;;11.43;7.30;;;11.20;97.60;;;;;;5095788;28;20102;-72
2023/06/01 04:31:41;;;;;;;12.20;6.82;;;11.20;97.70;;;;;;5095661;28;20444;-72
2023/06/01 04:34:06;;;;;;;11.43;6.65;;;11.20;97.60;;;;;;5095821;28;20024;-72
2023/06/01 04:36:38;;;;;;;12.32;7.03;;;11.20;97.60;;;;;;5094671;28;20063;-72
2023/06/01 04:39:07;;;;;;;11.93;7.18;;;11.30;97.50;;;;;;5094182;28;20051;-72
2023/06/01 04:41:37;;;;;;;13.70;8.80;;;11.30;97.60;;;;;;5094073;28;20034;-72
2023/06/01 04:44:06;;;;;;;14.13;6.68;;;11.30;97.70;;;;;;5094520;28;20054;-72
2023/06/01 04:46:34;;;;;;;11.32;6.88;;;11.20;97.50;;;;;;5075932;28;20024;-71
2023/06/01 04:49:00;;;;;;;14.07;8.00;;;11.30;97.70;;;;;;5075424;28;20032;-72
2023/06/01 04:51:27;;;;;;;12.63;6.75;;;11.30;97.50;;;;;;5082079;28;20024;-72
2023/06/01 04:53:53;;;;;;;16.48;8.13;;;11.40;97.60;;;;;;5093745;28;20493;-72
2023/06/01 04:56:24;;;;;;;12.27;7.60;;;11.50;97.50;;;;;;5094136;28;20093;-72
2023/06/01 04:58:51;;;;;;;15.75;7.40;;;11.50;97.60;;;;;;5095319;28;20028;-72
2023/06/01 05:01:17;;;;;;;13.40;7.82;;;11.60;97.80;;;;;;5094858;28;20028;-72
2023/06/01 05:03:44;;;;;;;10.95;6.88;;;11.70;97.40;;;;;;5094640;28;20024;-72
2023/06/01 05:06:11;;;;;;;9.73;6.43;;;11.70;97.80;;;;;;5095489;28;20021;-71
2023/06/01 05:08:38;;;;;;;14.35;6.63;;;11.80;97.70;;;;;;5094329;28;20413;-71
2023/06/01 05:11:03;;;;;;;11.30;6.82;;;11.80;97.60;;;;;;5095510;28;20030;-72
2023/06/01 05:13:29;;;;;;;10.80;6.38;;;11.90;97.20;;;;;;5078690;28;20107;-71
2023/06/01 05:15:55;;;;;;;12.93;7.00;;;12.00;96.90;;;;;;5097850;28;20030;-71
2023/06/01 05:18:20;;;;;;;11.23;7.43;;;12.10;97.10;;;;;;5095680;28;20039;-71
2023/06/01 05:20:46;;;;;;;15.00;7.07;;;12.20;96.90;;;;;;5084919;28;20297;-71
2023/06/01 05:23:11;;;;;;;13.27;6.85;;;12.30;96.00;;;;;;5095943;28;20032;-73
2023/06/01 05:25:37;;;;;;;13.75;6.57;;;12.40;95.50;;;;;;5090453;28;20356;-73
2023/06/01 05:28:03;;;;;;;9.95;5.85;;;12.50;94.70;;;;;;5094426;28;20429;-72
2023/06/01 05:30:28;;;;;;;11.30;6.22;;;12.70;94.50;;;;;;5094393;28;20033;-72
2023/06/01 05:32:54;;;;;;;11.52;5.97;;;12.80;94.70;;;;;;5091817;28;20081;-73
2023/06/01 05:35:20;;;;;;;11.20;6.15;;;12.90;93.80;;;;;;5097980;28;20078;-72
2023/06/01 05:37:46;;;;;;;16.27;6.63;;;13.10;93.70;;;;;;5083401;28;20036;-72
2023/06/01 05:40:12;;;;;;;11.27;6.60;;;13.30;93.10;;;;;;5095640;28;20043;-72
2023/06/01 05:42:39;;;;;;;11.95;6.32;;;13.50;93.10;;;;;;5080669;28;20527;-72
2023/06/01 05:45:05;;;;;;;12.18;6.65;;;13.70;92.60;;;;;;5089786;28;20064;-72
2023/06/01 05:47:31;;;;;;;11.88;6.30;;;13.90;91.70;;;;;;5096393;28;20107;-72
2023/06/01 05:49:56;;;;;;;12.93;7.10;;;14.10;92.10;;;;;;5087912;28;20460;-72
2023/06/01 05:52:23;;;;;;;13.88;6.72;;;14.20;90.80;;;;;;5095783;28;20055;-72
2023/06/01 05:54:50;;;;;;;12.82;6.43;;;14.40;90.10;;;;;;5096123;28;20031;-72
2023/06/01 05:57:16;;;;;;;11.68;6.70;;;14.60;89.40;;;;;;5063377;28;20350;-72
2023/06/01 05:59:42;;;;;;;14.00;6.72;;;14.80;89.00;;;;;;5083530;28;20064;-72
2023/06/01 06:02:08;;;;;;;10.52;6.13;;;14.90;87.90;;;;;;5080478;28;20029;-72
2023/06/01 06:04:33;;;;;;;11.60;6.32;;;15.00;87.80;;;;;;5079392;28;20032;-72
2023/06/01 06:06:59;;;;;;;10.60;6.00;;;15.20;86.90;;;;;;5098264;28;20445;-72
2023/06/01 06:09:25;;;;;;;12.45;6.55;;;15.40;86.30;;;;;;5078594;28;20027;-72
2023/06/01 06:11:51;;;;;;;12.13;6.63;;;15.40;85.30;;;;;;5090968;28;20035;-72
2023/06/01 06:14:16;;;;;;;11.93;6.53;;;15.50;85.60;;;;;;5094818;28;20020;-72
2023/06/01 06:16:42;;;;;;;14.00;6.53;;;15.60;84.80;;;;;;5083210;28;20028;-72
2023/06/01 06:19:07;;;;;;;12.50;6.70;;;15.60;85.30;;;;;;5089630;28;20025;-72
2023/06/01 06:21:33;;;;;;;9.95;6.13;;;15.70;85.80;;;;;;5078070;28;20025;-72
2023/06/01 06:23:59;;;;;;;13.73;6.38;;;15.70;85.60;;;;;;5077143;28;20047;-72
2023/06/01 06:26:27;;;;;;;14.63;7.13;;;15.80;85.70;;;;;;5090556;28;20039;-72
2023/06/01 06:28:53;;;;;;;13.25;7.22;;;15.90;85.70;;;;;;5096695;28;20028;-72
2023/06/01 06:31:19;;;;;;;11.43;6.20;;;16.00;85.80;;;;;;5093679;28;20057;-72
2023/06/01 06:33:44;;;;;;;12.48;6.78;;;16.10;86.10;;;;;;5084599;28;20021;-72
2023/06/01 06:36:10;;;;;;;12.77;6.15;;;16.20;87.10;;;;;;5093742;28;20101;-72
2023/06/01 06:38:35;;;;;;;11.65;6.53;;;16.20;87.50;;;;;;5085449;28;20098;-72
2023/06/01 06:41:01;;;;;;;10.10;5.95;;;16.30;86.70;;;;;;5093363;28;20045;-72
2023/06/01 06:43:26;;;;;;;9.95;5.93;;;16.40;87.30;;;;;;5096585;28;20424;-72
2023/06/01 06:45:52;;;;;;;10.68;5.72;;;16.40;87.70;;;;;;5091074;28;20028;-72
2023/06/01 06:48:17;;;;;;;12.07;6.53;;;16.40;87.50;;;;;;5059032;28;20559;-72
2023/06/01 06:50:44;;;;;;;9.85;6.25;;;16.40;87.70;;;;;;5091826;28;20154;-72
2023/06/01 06:53:10;;;;;;;11.85;6.38;;;16.50;87.60;;;;;;5084403;28;20020;-72
2023/06/01 06:55:36;;;;;;;11.70;6.45;;;16.60;87.40;;;;;;5096600;28;20020;-72
2023/06/01 06:58:01;;;;;;;12.82;6.22;;;16.80;86.60;;;;;;5093080;28;20343;-72
2023/06/01 07:00:27;;;;;;;12.60;6.47;;;16.90;85.40;;;;;;5092948;28;20139;-72
2023/06/01 07:02:53;;;;;;;12.15;5.90;;;17.00;84.50;;;;;;5079171;28;20024;-72
2023/06/01 07:05:19;;;;;;;11.23;6.40;;;17.00;84.60;;;;;;5097020;28;20048;-72
2023/06/01 07:07:45;;;;;;;11.18;5.80;;;16.80;84.20;;;;;;5090599;28;20406;-72
2023/06/01 07:10:10;;;;;;;11.77;5.82;;;17.00;83.90;;;;;;5086820;28;20024;-72
2023/06/01 07:12:36;;;;;;;10.77;6.55;;;17.20;82.50;;;;;;5078871;28;20032;-72
2023/06/01 07:15:02;;;;;;;12.90;6.70;;;17.20;82.90;;;;;;5078080;28;20024;-81
2023/06/01 07:17:30;;;;;;;15.38;6.88;;;17.30;85.00;;;;;;5096751;28;20051;-92
2023/06/01 07:19:56;;;;;;;12.55;7.10;;;16.80;88.40;;;;;;5097159;28;20024;-85
2023/06/01 07:22:22;;;;;;;17.25;7.50;;;16.00;89.90;;;;;;5078828;28;20035;-77
2023/06/01 07:24:47;;;;;;;13.30;7.63;;;15.70;92.10;;;;;;5088817;28;20021;-77
2023/06/01 07:27:13;;;;;;;14.95;6.85;;;16.00;92.30;;;;;;5076344;28;20025;-76
2023/06/01 07:29:39;;;;;;;12.65;6.85;;;16.40;91.30;;;;;;5086288;28;20055;-76
2023/06/01 07:32:06;;;;;;;12.60;6.70;;;16.90;89.80;;;;;;5090802;28;20052;-76
2023/06/01 07:34:33;;;;;;;12.18;6.05;;;17.40;87.20;;;;;;5061665;28;20025;-76
2023/06/01 07:37:01;;;;;;;12.07;6.00;;;18.10;85.90;;;;;;5089392;28;20064;-76
2023/06/01 07:39:27;;;;;;;12.98;6.57;;;18.90;83.50;;;;;;5082971;28;20251;-76
2023/06/01 07:41:53;;;;;;;13.25;6.20;;;19.60;80.40;;;;;;5059185;28;20054;-75
2023/06/01 07:44:22;;;;;;;12.43;5.82;;;20.00;79.10;;;;;;5083690;28;20435;-75
2023/06/01 07:46:48;;;;;;;13.70;5.93;;;20.50;78.70;;;;;;5083551;28;20024;-75
2023/06/01 07:49:17;;;;;;;11.63;5.32;;;21.20;77.10;;;;;;5078457;28;20294;-75
2023/06/01 07:51:43;;;;;;;13.45;5.53;;;21.90;76.00;;;;;;5068554;28;20024;-75
2023/06/01 07:54:09;;;;;;;14.18;5.95;;;22.40;73.80;;;;;;5092733;28;20356;-74
2023/06/01 07:56:35;;;;;;;13.90;5.40;;;22.90;73.20;;;;;;5091619;28;20017;-74
2023/06/01 07:59:01;;;;;;;10.55;5.50;;;22.80;73.30;;;;;;5083883;28;20020;-74
2023/06/01 08:01:27;;;;;;;11.98;5.70;;;22.70;74.10;;;;;;5095252;28;20028;-74
2023/06/01 08:03:52;;;;;;;10.75;5.43;;;23.50;72.80;;;;;;5094430;28;20039;-74
2023/06/01 08:06:22;;;;;;;11.55;5.20;;;23.90;71.20;;;;;;5096002;28;20165;-72
2023/06/01 08:08:49;;;;;;;9.50;5.50;;;24.10;70.90;;;;;;5094529;28;20063;-72
2023/06/01 08:11:17;;;;;;;11.98;5.95;;;23.90;70.40;;;;;;5096082;28;20024;-72
2023/06/01 08:13:45;;;;;;;11.77;5.90;;;24.10;69.40;;;;;;5083466;28;20038;-72
2023/06/01 08:16:12;;;;;;;9.68;5.60;;;24.30;69.40;;;;;;5089570;28;20055;-72
2023/06/01 08:18:38;;;;;;;10.82;5.18;;;24.70;68.80;;;;;;5088726;28;20020;-73
2023/06/01 08:21:04;;;;;;;11.95;5.72;;;25.00;68.70;;;;;;5088645;28;20115;-74
2023/06/01 08:23:30;;;;;;;12.15;5.53;;;25.10;67.70;;;;;;5086309;28;20027;-73
2023/06/01 08:25:55;;;;;;;9.93;5.40;;;25.10;67.10;;;;;;5083337;28;20443;-73
2023/06/01 08:28:21;;;;;;;8.07;4.80;;;25.10;67.90;;;;;;5093834;28;20441;-73
2023/06/01 08:30:47;;;;;;;9.70;5.13;;;25.10;68.20;;;;;;5094935;28;20328;-73
2023/06/01 08:33:12;;;;;;;8.40;5.22;;;25.00;67.70;;;;;;5084491;28;20033;-73
2023/06/01 08:35:41;;;;;;;10.95;5.40;;;25.20;67.40;;;;;;5085977;28;20119;-73
2023/06/01 08:38:06;;;;;;;8.80;5.50;;;25.40;66.60;;;;;;5085586;28;20032;-73
2023/06/01 08:40:32;;;;;;;9.88;5.45;;;25.40;67.20;;;;;;5088295;28;20030;-73
2023/06/01 08:43:02;;;;;;;10.70;5.32;;;25.50;66.70;;;;;;5090236;28;20051;-73
2023/06/01 08:45:28;;;;;;;11.57;5.85;;;25.80;66.20;;;;;;5089750;28;20028;-73
2023/06/01 08:47:54;;;;;;;11.45;5.40;;;26.00;64.90;;;;;;5097449;28;20028;-73
2023/06/01 08:50:21;;;;;;;10.15;5.43;;;25.30;66.50;;;;;;5085944;28;21141;-73
2023/06/01 08:52:48;;;;;;;9.15;4.97;;;25.20;67.30;;;;;;5090788;28;20044;-73
2023/06/01 08:55:15;;;;;;;11.48;5.75;;;25.50;66.70;;;;;;5073245;28;20073;-73
2023/06/01 08:57:41;;;;;;;10.95;5.97;;;25.50;65.40;;;;;;5099666;28;20313;-73
2023/06/01 09:00:11;;;;;;;10.73;5.10;;;25.80;65.30;;;;;;5084404;28;20481;-73
2023/06/01 09:02:37;;;;;;;10.85;4.55;;;26.00;64.00;;;;;;5099253;28;20081;-73
2023/06/01 09:05:03;;;;;;;9.55;5.43;;;25.80;65.40;;;;;;5082621;28;20024;-73
2023/06/01 09:07:31;;;;;;;11.45;5.85;;;25.80;64.40;;;;;;5079293;28;20023;-73
2023/06/01 09:09:56;;;;;;;10.23;5.25;;;25.10;65.70;;;;;;5091885;28;20028;-73
2023/06/01 09:12:25;;;;;;;11.50;5.45;;;25.00;65.70;;;;;;5094944;28;20024;-73
2023/06/01 09:15:06;;;;;;;8.88;4.78;;;25.60;64.20;;;;;;5089783;28;20444;-72
2023/06/01 09:17:34;;;;;;;12.73;5.78;;;26.40;64.00;;;;;;5099096;28;20099;-73
2023/06/01 09:20:00;;;;;;;8.15;4.90;;;26.90;61.90;;;;;;5083013;28;20028;-73
2023/06/01 09:22:42;;;;;;;10.25;4.90;;;26.90;62.30;;;;;;5085945;28;20079;-73
2023/06/01 09:25:08;;;;;;;8.45;4.85;;;26.90;62.30;;;;;;5060206;28;20329;-73
2023/06/01 09:27:52;;;;;;;9.60;5.03;;;26.90;62.30;;;;;;5078712;28;20031;-72
2023/06/01 09:30:19;;;;;;;10.33;5.37;;;27.10;61.90;;;;;;5094304;28;20317;-72
2023/06/01 09:32:50;;;;;;;15.60;5.85;;;27.20;61.30;;;;;;5097299;28;20265;-73
2023/06/01 09:35:34;;;;;;;12.68;5.35;;;27.60;60.60;;;;;;5085280;28;20322;-72
2023/06/01 09:38:05;;;;;;;12.00;5.50;;;27.30;61.10;;;;;;5084242;28;20091;-71
2023/06/01 09:40:31;;;;;;;13.43;5.30;;;27.30;60.60;;;;;;5090175;28;20104;-72
2023/06/01 09:42:57;;;;;;;12.75;5.90;;;26.90;61.30;;;;;;5098401;28;20024;-72
2023/06/01 09:45:23;;;;;;;8.57;5.30;;;26.30;61.00;;;;;;5089113;28;20032;-72
2023/06/01 09:47:50;;;;;;;10.50;5.53;;;26.70;62.90;;;;;;5094096;28;20103;-72
2023/06/01 09:50:48;;;;;;;14.27;5.35;;;27.10;60.20;;;;;;5097289;28;20077;-72
2023/06/01 09:53:14;;;;;;;10.05;5.00;;;26.70;61.60;;;;;;5031199;28;20048;-73
2023/06/01 09:55:59;;;;;;;10.50;5.10;;;26.80;61.20;;;;;;5090901;28;20032;-73
2023/06/01 09:58:25;;;;;;;8.63;4.80;;;27.30;60.50;;;;;;5084378;28;20294;-73
2023/06/01 10:00:51;;;;;;;8.55;4.88;;;27.40;59.50;;;;;;5087112;28;20098;-72
2023/06/01 10:03:19;;;;;;;11.85;5.47;;;27.80;61.30;;;;;;5092513;28;20085;-73
2023/06/01 10:05:46;;;;;;;11.13;5.20;;;28.10;58.20;;;;;;5091795;28;20037;-72
2023/06/01 10:08:13;;;;;;;14.13;5.95;;;27.30;59.30;;;;;;5089547;28;20028;-72
2023/06/01 10:10:40;;;;;;;9.68;4.75;;;26.90;60.50;;;;;;5089893;28;20024;-73
2023/06/01 10:13:06;;;;;;;11.98;5.28;;;27.10;59.60;;;;;;5096264;28;20047;-72
2023/06/01 10:15:33;;;;;;;9.65;5.13;;;27.30;58.90;;;;;;5085973;28;20099;-72
2023/06/01 10:18:05;;;;;;;8.18;5.30;;;27.20;58.80;;;;;;5095086;28;20027;-72
2023/06/01 10:20:35;;;;;;;10.98;5.22;;;27.10;57.50;;;;;;5077740;28;20036;-72
2023/06/01 10:23:01;;;;;;;8.73;4.60;;;26.50;58.00;;;;;;5058817;28;20024;-72
2023/06/01 10:25:31;;;;;;;11.60;5.72;;;26.60;57.40;;;;;;5077652;28;20337;-72
2023/06/01 10:28:07;;;;;;;9.70;5.05;;;26.20;59.50;;;;;;5077451;28;20032;-72
2023/06/01 10:30:33;;;;;;;9.23;4.90;;;26.50;59.40;;;;;;5078286;28;20040;-72
2023/06/01 10:32:59;;;;;;;11.48;5.47;;;26.80;59.10;;;;;;5077611;28;20025;-72
2023/06/01 10:35:27;;;;;;;13.00;6.15;;;27.30;58.30;;;;;;5077205;28;20029;-72
2023/06/01 10:38:16;;;;;;;12.55;5.65;;;27.30;58.10;;;;;;5077245;28;20108;-72
2023/06/01 10:40:44;;;;;;;9.10;4.40;;;27.70;58.50;;;;;;5087187;28;20075;-72
2023/06/01 10:43:38;;;;;;;10.38;5.32;;;27.70;55.60;;;;;;5096994;28;20027;-72
2023/06/01 10:46:23;;;;;;;9.15;4.43;;;27.50;56.20;;;;;;5077343;28;20452;-72
2023/06/01 10:48:55;;;;;;;10.25;5.35;;;28.40;58.00;;;;;;5089171;28;20413;-72
2023/06/01 10:51:23;;;;;;;10.02;5.35;;;29.20;55.40;;;;;;5079449;28;20031;-72
2023/06/01 10:53:49;;;;;;;9.93;5.45;;;29.50;54.00;;;;;;5090189;28;20028;-73
2023/06/01 10:56:26;;;;;;;9.50;5.07;;;28.80;54.40;;;;;;5097055;28;20488;-73
2023/06/01 10:59:07;;;;;;;10.65;5.18;;;28.20;58.40;;;;;;5091738;28;20082;-72
2023/06/01 11:01:44;;;;;;;9.95;5.15;;;28.30;56.50;;;;;;5076775;28;20025;-72
2023/06/01 11:04:10;;;;;;;10.60;6.18;;;28.50;55.50;;;;;;5076663;28;20222;-72
2023/06/01 11:06:39;;;;;;;11.52;5.03;;;28.40;55.10;;;;;;5080268;28;20052;-72
2023/06/01 11:09:10;;;;;;;11.95;5.80;;;27.40;57.70;;;;;;5075266;28;20322;-71
2023/06/01 11:11:50;;;;;;;12.80;5.80;;;27.10;57.80;;;;;;5077654;28;20414;-72
2023/06/01 11:14:19;;;;;;;10.35;5.00;;;26.90;58.10;;;;;;5089110;28;20093;-73
2023/06/01 11:16:45;;;;;;;11.52;6.28;;;26.90;60.00;;;;;;5095675;28;20040;-72
2023/06/01 11:19:21;;;;;;;11.43;5.28;;;26.90;56.80;;;;;;5096928;28;20058;-72
2023/06/01 11:21:46;;;;;;;11.50;6.97;;;27.40;58.90;;;;;;5082162;28;20055;-72
2023/06/01 11:24:14;;;;;;;9.90;5.32;;;27.70;56.90;;;;;;5093938;28;20111;-73
2023/06/01 11:26:42;;;;;;;10.65;5.40;;;27.70;56.60;;;;;;5096884;28;20440;-73
2023/06/01 11:29:07;;;;;;;10.63;5.65;;;27.90;57.40;;;;;;5076358;28;20064;-72
2023/06/01 11:31:47;;;;;;;10.40;5.57;;;27.60;58.40;;;;;;5090340;28;20397;-72
2023/06/01 11:34:15;;;;;;;9.98;5.60;;;27.40;57.70;;;;;;5087727;28;20028;-72
2023/06/01 11:36:43;;;;;;;11.93;5.80;;;27.10;58.80;;;;;;5058412;28;20055;-72
2023/06/01 11:39:28;;;;;;;11.07;6.00;;;26.90;59.80;;;;;;5092843;28;20496;-72
2023/06/01 11:42:34;;;;;;;12.23;6.05;;;27.00;59.00;;;;;;5088438;28;20086;-72
2023/06/01 11:45:00;;;;;;;12.20;6.03;;;26.40;59.30;;;;;;5008799;28;20134;-72
2023/06/01 11:47:29;;;;;;;10.82;5.40;;;26.60;59.10;;;;;;5007953;28;20124;-72
2023/06/01 11:49:55;;;;;;;12.63;6.00;;;27.00;60.10;;;;;;5045316;28;20036;-72
2023/06/01 11:52:21;;;;;;;11.57;5.38;;;27.30;57.70;;;;;;5076062;28;20422;-72
2023/06/01 11:54:48;;;;;;;10.07;5.20;;;27.80;58.00;;;;;;5089498;28;20036;-72
2023/06/01 11:57:14;;;;;;;10.20;5.47;;;28.40;57.30;;;;;;5096003;28;20028;-72
2023/06/01 11:59:48;;;;;;;8.68;5.03;;;28.60;57.30;;;;;;5090674;28;20103;-72
2023/06/01 12:02:16;;;;;;;;;;;29.00;56.90;;;;;;5096436;28;20048;-72
2023/06/01 12:04:43;;;;;;;10.38;5.97;;;29.20;55.10;;;;;;5092170;28;20198;-72
2023/06/01 12:07:08;;;;;;;14.13;6.00;;;28.40;56.60;;;;;;5082629;28;20025;-72
2023/06/01 12:09:35;;;;;;;9.85;5.70;;;28.10;56.70;;;;;;5091029;28;20042;-72
2023/06/01 12:12:05;;;;;;;10.68;4.93;;;27.90;57.80;;;;;;5096106;28;20028;-72
2023/06/01 12:14:30;;;;;;;11.10;5.88;;;28.20;56.70;;;;;;5094784;28;20504;-72
2023/06/01 12:17:00;;;;;;;8.65;5.10;;;28.10;56.50;;;;;;5095895;28;20064;-72
2023/06/01 12:19:26;;;;;;;11.38;5.28;;;28.10;57.20;;;;;;5078154;28;20055;-72
2023/06/01 12:21:58;;;;;;;8.65;4.80;;;28.10;56.30;;;;;;5096932;28;20020;-72
2023/06/01 12:24:35;;;;;;;11.43;5.60;;;28.80;56.50;;;;;;5084207;28;20314;-72
2023/06/01 12:27:12;;;;;;;11.65;5.45;;;29.20;55.80;;;;;;5088798;28;20104;-72
2023/06/01 12:29:42;;;;;;;10.43;5.22;;;28.50;55.70;;;;;;5099879;28;20024;-72
2023/06/01 12:32:09;;;;;;;9.35;4.90;;;28.20;56.50;;;;;;5082096;28;20111;-72
2023/06/01 12:34:36;;;;;;;10.57;5.45;;;27.50;57.70;;;;;;5099039;28;20028;-72
2023/06/01 12:37:18;;;;;;;11.45;5.03;;;27.60;57.40;;;;;;5098530;28;20070;-72
2023/06/01 12:39:53;;;;;;;9.20;5.25;;;28.20;56.80;;;;;;5084584;28;20152;-72
2023/06/01 12:42:20;;;;;;;10.57;5.47;;;28.80;55.30;;;;;;5092367;28;20082;-72
2023/06/01 12:44:52;;;;;;;8.50;5.43;;;29.50;53.80;;;;;;5079597;28;20039;-72